sensor_id;sensor_type;location;lat;lon;timestamp;temperature;humidity
4429;DHT22;2227;47.810;8.810;2023-12-14T00:00:00;7.70;99.90
4429;DHT22;2227;47.810;8.810;2023-12-14T04:49:22;6.20;99.90
4429;DHT22;2227;47.810;8.810;2023-12-14T04:51:48;6.20;99.90
4429;DHT22;2227;47.810;8.810;2023-12-14T04:54:15;6.30;99.90
4429;DHT22;2227;47.810;8.810;2023-12-14T04:56:45;6.20;99.90
4429;DHT22;2227;47.810;8.810;2023-12-14T04:59:12;6.20;99.90
4429;DHT22;2227;47.810;8.810;2023-12-14T05:01:39;6.20;99.90
4429;DHT22;2227;47.810;8.810;2023-12-14T05:04:06;6.10;99.90
4429;DHT22;2227;47.810;8.810;2023-12-14T05:06:33;6.00;99.90
4429;DHT22;2227;47.810;8.810;2023-12-14T05:09:01;6.00;99.90
4429;DHT22;2227;47.810;8.810;2023-12-14T05:11:31;6.00;99.90
4429;DHT22;2227;47.810;8.810;2023-12-14T05:13:58;6.00;99.90
4429;DHT22;2227;47.810;8.810;2023-12-14T05:16:25;6.00;99.90
4429;DHT22;2227;47.810;8.810;2023-12-14T05:18:55;6.00;99.90
4429;DHT22;2227;47.810;8.810;2023-12-14T05:21:22;6.10;99.90
4429;DHT22;2227;47.810;8.810;2023-12-14T05:23:49;6.10;99.90
4429;DHT22;2227;47.810;8.810;2023-12-14T05:26:16;6.10;99.90
4429;DHT22;2227;47.810;8.810;2023-12-14T05:28:42;6.10;99.90
4429;DHT22;2227;47.810;8.810;2023-12-14T05:31:10;6.10;99.90
4429;DHT22;2227;47.810;8.810;2023-12-14T05:33:37;5.90;99.90
4429;DHT22;2227;47.810;8.810;2023-12-14T05:36:05;5.90;99.90
4429;DHT22;2227;47.810;8.810;2023-12-14T05:38:35;5.90;99.90
4429;DHT22;2227;47.810;8.810;2023-12-14T05:41:01;5.90;99.90
4429;DHT22;2227;47.810;8.810;2023-12-14T05:43:28;5.50;99.90
4429;DHT22;2227;47.810;8.810;2023-12-14T05:45:55;5.40;99.90
4429;DHT22;2227;47.810;8.810;2023-12-14T05:48:22;5.50;99.90
4429;DHT22;2227;47.810;8.810;2023-12-14T05:50:51;5.70;99.90
4429;DHT22;2227;47.810;8.810;2023-12-14T05:53:18;5.80;99.90
4429;DHT22;2227;47.810;8.810;2023-12-14T05:55:45;5.80;99.90
4429;DHT22;2227;47.810;8.810;2023-12-14T05:58:12;5.80;99.90
4429;DHT22;2227;47.810;8.810;2023-12-14T06:00:40;5.70;99.90
4429;DHT22;2227;47.810;8.810;2023-12-14T06:03:07;5.80;99.90
4429;DHT22;2227;47.810;8.810;2023-12-14T06:05:34;5.90;99.90
4429;DHT22;2227;47.810;8.810;2023-12-14T06:08:01;5.80;99.90
4429;DHT22;2227;47.810;8.810;2023-12-14T06:10:27;5.90;99.90
4429;DHT22;2227;47.810;8.810;2023-12-14T06:12:55;5.90;99.90
4429;DHT22;2227;47.810;8.810;2023-12-14T06:15:22;5.90;99.90
4429;DHT22;2227;47.810;8.810;2023-12-14T06:17:49;5.80;99.90
4429;DHT22;2227;47.810;8.810;2023-12-14T06:20:16;5.80;99.90
4429;DHT22;2227;47.810;8.810;2023-12-14T06:22:43;5.80;99.90
4429;DHT22;2227;47.810;8.810;2023-12-14T06:25:10;5.80;99.90
4429;DHT22;2227;47.810;8.810;2023-12-14T06:27:37;5.80;99.90
4429;DHT22;2227;47.810;8.810;2023-12-14T06:30:04;5.80;99.90
4429;DHT22;2227;47.810;8.810;2023-12-14T06:32:31;5.80;99.90
4429;DHT22;2227;47.810;8.810;2023-12-14T06:34:58;5.80;99.90
4429;DHT22;2227;47.810;8.810;2023-12-14T06:37:25;5.70;99.90
4429;DHT22;2227;47.810;8.810;2023-12-14T06:39:52;5.80;99.90
4429;DHT22;2227;47.810;8.810;2023-12-14T06:42:19;5.90;99.90
4429;DHT22;2227;47.810;8.810;2023-12-14T06:44:45;5.80;99.90
4429;DHT22;2227;47.810;8.810;2023-12-14T06:47:12;5.90;99.90
4429;DHT22;2227;47.810;8.810;2023-12-14T06:49:40;5.80;99.90
4429;DHT22;2227;47.810;8.810;2023-12-14T06:52:07;5.90;99.90
4429;DHT22;2227;47.810;8.810;2023-12-14T06:54:34;5.80;99.90
4429;DHT22;2227;47.810;8.810;2023-12-14T06:57:02;5.80;99.90
4429;DHT22;2227;47.810;8.810;2023-12-14T06:59:29;5.90;99.90
4429;DHT22;2227;47.810;8.810;2023-12-14T07:01:56;5.70;99.90
4429;DHT22;2227;47.810;8.810;2023-12-14T07:04:23;5.70;99.90
4429;DHT22;2227;47.810;8.810;2023-12-14T07:06:53;5.70;99.90
4429;DHT22;2227;47.810;8.810;2023-12-14T07:09:20;5.70;99.90
4429;DHT22;2227;47.810;8.810;2023-12-14T07:11:46;5.70;99.90
4429;DHT22;2227;47.810;8.810;2023-12-14T07:14:13;5.80;99.90
4429;DHT22;2227;47.810;8.810;2023-12-14T07:16:42;5.80;99.90
4429;DHT22;2227;47.810;8.810;2023-12-14T07:19:09;5.80;99.90
4429;DHT22;2227;47.810;8.810;2023-12-14T07:21:37;5.90;99.90
4429;DHT22;2227;47.810;8.810;2023-12-14T07:24:04;5.90;99.90
4429;DHT22;2227;47.810;8.810;2023-12-14T07:26:31;6.00;99.90
4429;DHT22;2227;47.810;8.810;2023-12-14T07:28:58;6.00;99.90
4429;DHT22;2227;47.810;8.810;2023-12-14T07:31:24;5.90;99.90
4429;DHT22;2227;47.810;8.810;2023-12-14T07:33:51;5.80;99.90
4429;DHT22;2227;47.810;8.810;2023-12-14T07:36:18;5.90;99.90
4429;DHT22;2227;47.810;8.810;2023-12-14T07:38:45;6.00;99.90
4429;DHT22;2227;47.810;8.810;2023-12-14T07:41:11;6.10;99.90
4429;DHT22;2227;47.810;8.810;2023-12-14T07:43:39;6.10;99.90
4429;DHT22;2227;47.810;8.810;2023-12-14T07:46:05;6.10;99.90
4429;DHT22;2227;47.810;8.810;2023-12-14T07:48:32;6.10;99.90
4429;DHT22;2227;47.810;8.810;2023-12-14T07:50:59;6.10;99.90
4429;DHT22;2227;47.810;8.810;2023-12-14T07:53:26;6.10;99.90
4429;DHT22;2227;47.810;8.810;2023-12-14T07:55:53;6.10;99.90
4429;DHT22;2227;47.810;8.810;2023-12-14T07:58:20;6.10;99.90
4429;DHT22;2227;47.810;8.810;2023-12-14T08:00:48;6.20;99.90
4429;DHT22;2227;47.810;8.810;2023-12-14T08:03:15;6.30;99.90
4429;DHT22;2227;47.810;8.810;2023-12-14T08:05:42;6.30;99.90
4429;DHT22;2227;47.810;8.810;2023-12-14T08:08:08;6.30;99.90
4429;DHT22;2227;47.810;8.810;2023-12-14T08:10:35;6.30;99.90
4429;DHT22;2227;47.810;8.810;2023-12-14T08:13:02;6.30;99.90
4429;DHT22;2227;47.810;8.810;2023-12-14T08:15:29;6.40;99.90
4429;DHT22;2227;47.810;8.810;2023-12-14T08:17:56;6.40;99.90
4429;DHT22;2227;47.810;8.810;2023-12-14T08:20:23;6.50;99.90
4429;DHT22;2227;47.810;8.810;2023-12-14T08:22:50;6.60;99.90
4429;DHT22;2227;47.810;8.810;2023-12-14T08:25:17;6.60;99.90
4429;DHT22;2227;47.810;8.810;2023-12-14T08:27:44;6.70;99.90
4429;DHT22;2227;47.810;8.810;2023-12-14T08:30:12;6.70;99.90
4429;DHT22;2227;47.810;8.810;2023-12-14T08:32:39;6.80;99.90
4429;DHT22;2227;47.810;8.810;2023-12-14T08:35:06;6.70;99.90
4429;DHT22;2227;47.810;8.810;2023-12-14T08:37:35;6.70;99.90
4429;DHT22;2227;47.810;8.810;2023-12-14T08:40:02;6.80;99.90
4429;DHT22;2227;47.810;8.810;2023-12-14T08:42:30;6.90;99.90
4429;DHT22;2227;47.810;8.810;2023-12-14T08:44:57;7.00;99.90
4429;DHT22;2227;47.810;8.810;2023-12-14T08:47:24;7.00;99.90
4429;DHT22;2227;47.810;8.810;2023-12-14T08:49:51;7.10;99.90
4429;DHT22;2227;47.810;8.810;2023-12-14T08:52:18;7.10;99.90
4429;DHT22;2227;47.810;8.810;2023-12-14T08:54:45;7.30;99.90
4429;DHT22;2227;47.810;8.810;2023-12-14T08:57:12;7.30;99.90
4429;DHT22;2227;47.810;8.810;2023-12-14T08:59:39;7.30;99.90
4429;DHT22;2227;47.810;8.810;2023-12-14T09:02:10;7.40;99.90
4429;DHT22;2227;47.810;8.810;2023-12-14T09:04:37;7.30;99.90
4429;DHT22;2227;47.810;8.810;2023-12-14T09:07:03;7.30;99.90
4429;DHT22;2227;47.810;8.810;2023-12-14T09:09:31;7.40;99.90
4429;DHT22;2227;47.810;8.810;2023-12-14T09:11:59;7.50;99.90
4429;DHT22;2227;47.810;8.810;2023-12-14T09:14:25;7.70;99.90
4429;DHT22;2227;47.810;8.810;2023-12-14T09:16:52;7.80;99.90
4429;DHT22;2227;47.810;8.810;2023-12-14T09:19:20;7.80;99.90
4429;DHT22;2227;47.810;8.810;2023-12-14T09:21:46;8.00;99.90
4429;DHT22;2227;47.810;8.810;2023-12-14T09:24:13;8.10;99.90
4429;DHT22;2227;47.810;8.810;2023-12-14T09:26:40;8.00;99.90
4429;DHT22;2227;47.810;8.810;2023-12-14T09:29:08;7.80;99.90
4429;DHT22;2227;47.810;8.810;2023-12-14T09:31:35;8.00;99.90
4429;DHT22;2227;47.810;8.810;2023-12-14T09:34:02;8.20;99.90
4429;DHT22;2227;47.810;8.810;2023-12-14T09:36:29;8.50;99.90
4429;DHT22;2227;47.810;8.810;2023-12-14T09:38:56;8.50;99.90
4429;DHT22;2227;47.810;8.810;2023-12-14T09:41:23;8.50;99.90
4429;DHT22;2227;47.810;8.810;2023-12-14T09:43:51;8.50;99.90
4429;DHT22;2227;47.810;8.810;2023-12-14T09:46:18;8.30;99.90
4429;DHT22;2227;47.810;8.810;2023-12-14T09:48:46;8.40;99.90
4429;DHT22;2227;47.810;8.810;2023-12-14T09:51:14;8.10;99.90
4429;DHT22;2227;47.810;8.810;2023-12-14T09:53:42;8.10;99.90
4429;DHT22;2227;47.810;8.810;2023-12-14T09:56:09;8.30;99.90
4429;DHT22;2227;47.810;8.810;2023-12-14T09:58:36;8.40;99.90
4429;DHT22;2227;47.810;8.810;2023-12-14T10:01:24;8.40;99.90
4429;DHT22;2227;47.810;8.810;2023-12-14T10:06:40;8.40;99.90
4429;DHT22;2227;47.810;8.810;2023-12-14T10:09:07;8.60;99.90
4429;DHT22;2227;47.810;8.810;2023-12-14T10:11:40;8.50;99.90
4429;DHT22;2227;47.810;8.810;2023-12-14T10:14:24;8.40;99.90
4429;DHT22;2227;47.810;8.810;2023-12-14T10:16:52;8.40;99.90
4429;DHT22;2227;47.810;8.810;2023-12-14T10:19:28;8.40;99.90
4429;DHT22;2227;47.810;8.810;2023-12-14T10:21:55;8.50;99.90
4429;DHT22;2227;47.810;8.810;2023-12-14T10:24:22;8.40;99.90
4429;DHT22;2227;47.810;8.810;2023-12-14T10:26:50;8.20;99.90
4429;DHT22;2227;47.810;8.810;2023-12-14T10:29:17;8.40;99.90
4429;DHT22;2227;47.810;8.810;2023-12-14T10:31:45;8.30;99.90
4429;DHT22;2227;47.810;8.810;2023-12-14T10:34:12;8.40;99.90
4429;DHT22;2227;47.810;8.810;2023-12-14T10:36:40;8.40;99.90
4429;DHT22;2227;47.810;8.810;2023-12-14T10:39:10;8.50;99.90
4429;DHT22;2227;47.810;8.810;2023-12-14T10:41:41;8.40;99.90
4429;DHT22;2227;47.810;8.810;2023-12-14T10:44:09;8.40;99.90
4429;DHT22;2227;47.810;8.810;2023-12-14T10:46:58;8.30;99.90
4429;DHT22;2227;47.810;8.810;2023-12-14T10:49:25;8.40;99.90
4429;DHT22;2227;47.810;8.810;2023-12-14T10:51:55;8.50;99.90
4429;DHT22;2227;47.810;8.810;2023-12-14T10:54:24;8.50;99.90
4429;DHT22;2227;47.810;8.810;2023-12-14T10:57:00;8.60;99.90
4429;DHT22;2227;47.810;8.810;2023-12-14T10:59:27;8.70;99.90
4429;DHT22;2227;47.810;8.810;2023-12-14T11:01:54;8.70;99.90
4429;DHT22;2227;47.810;8.810;2023-12-14T11:04:22;8.90;99.90
4429;DHT22;2227;47.810;8.810;2023-12-14T11:06:49;8.90;99.90
4429;DHT22;2227;47.810;8.810;2023-12-14T11:09:19;9.00;99.90
4429;DHT22;2227;47.810;8.810;2023-12-14T11:11:55;8.80;99.90
4429;DHT22;2227;47.810;8.810;2023-12-14T11:14:27;8.60;99.90
4429;DHT22;2227;47.810;8.810;2023-12-14T11:16:56;8.60;99.90
4429;DHT22;2227;47.810;8.810;2023-12-14T11:24:35;8.60;99.90
4429;DHT22;2227;47.810;8.810;2023-12-14T11:27:06;8.60;99.90
4429;DHT22;2227;47.810;8.810;2023-12-14T11:29:35;8.40;99.90
4429;DHT22;2227;47.810;8.810;2023-12-14T11:32:02;8.20;99.90
4429;DHT22;2227;47.810;8.810;2023-12-14T11:34:29;8.40;99.90
4429;DHT22;2227;47.810;8.810;2023-12-14T11:36:55;8.40;99.90
4429;DHT22;2227;47.810;8.810;2023-12-14T11:39:22;8.50;99.90
4429;DHT22;2227;47.810;8.810;2023-12-14T11:42:00;8.50;99.90
4429;DHT22;2227;47.810;8.810;2023-12-14T11:44:26;8.60;99.90
4429;DHT22;2227;47.810;8.810;2023-12-14T11:46:53;8.40;99.90
4429;DHT22;2227;47.810;8.810;2023-12-14T11:49:20;8.30;99.90
4429;DHT22;2227;47.810;8.810;2023-12-14T11:51:47;8.20;99.90
4429;DHT22;2227;47.810;8.810;2023-12-14T11:54:17;8.20;99.90
4429;DHT22;2227;47.810;8.810;2023-12-14T11:56:48;8.20;99.90
4429;DHT22;2227;47.810;8.810;2023-12-14T11:59:16;8.20;99.90
4429;DHT22;2227;47.810;8.810;2023-12-14T12:02:00;7.90;99.90
4429;DHT22;2227;47.810;8.810;2023-12-14T12:04:27;7.90;99.90
4429;DHT22;2227;47.810;8.810;2023-12-14T12:07:05;8.00;99.90
4429;DHT22;2227;47.810;8.810;2023-12-14T12:09:36;8.10;99.90
4429;DHT22;2227;47.810;8.810;2023-12-14T12:12:11;8.20;99.90
4429;DHT22;2227;47.810;8.810;2023-12-14T12:14:39;8.10;99.90
4429;DHT22;2227;47.810;8.810;2023-12-14T12:17:07;8.30;99.90
4429;DHT22;2227;47.810;8.810;2023-12-14T12:19:37;8.70;99.90
4429;DHT22;2227;47.810;8.810;2023-12-14T12:22:04;9.10;99.90
4429;DHT22;2227;47.810;8.810;2023-12-14T12:24:31;9.10;99.90
4429;DHT22;2227;47.810;8.810;2023-12-14T12:27:00;9.00;99.90
4429;DHT22;2227;47.810;8.810;2023-12-14T12:29:27;9.00;99.90
4429;DHT22;2227;47.810;8.810;2023-12-14T12:31:54;9.00;99.90
4429;DHT22;2227;47.810;8.810;2023-12-14T12:34:22;8.90;99.90
4429;DHT22;2227;47.810;8.810;2023-12-14T12:36:49;8.60;99.90
4429;DHT22;2227;47.810;8.810;2023-12-14T12:39:15;8.40;99.90
4429;DHT22;2227;47.810;8.810;2023-12-14T12:41:43;8.40;99.90
4429;DHT22;2227;47.810;8.810;2023-12-14T12:44:10;8.40;99.90
4429;DHT22;2227;47.810;8.810;2023-12-14T12:46:37;8.40;99.90
4429;DHT22;2227;47.810;8.810;2023-12-14T12:49:04;8.40;99.90
4429;DHT22;2227;47.810;8.810;2023-12-14T12:51:32;8.60;99.90
4429;DHT22;2227;47.810;8.810;2023-12-14T12:53:59;8.40;99.90
4429;DHT22;2227;47.810;8.810;2023-12-14T12:56:38;8.30;99.90
4429;DHT22;2227;47.810;8.810;2023-12-14T12:59:05;8.30;99.90
4429;DHT22;2227;47.810;8.810;2023-12-14T13:01:35;8.30;99.90
4429;DHT22;2227;47.810;8.810;2023-12-14T13:04:02;8.10;99.90
4429;DHT22;2227;47.810;8.810;2023-12-14T13:06:31;8.10;99.90
4429;DHT22;2227;47.810;8.810;2023-12-14T13:08:57;8.20;99.90
4429;DHT22;2227;47.810;8.810;2023-12-14T13:11:24;8.10;99.90
4429;DHT22;2227;47.810;8.810;2023-12-14T13:13:52;8.10;99.90
4429;DHT22;2227;47.810;8.810;2023-12-14T13:16:18;8.10;99.90
4429;DHT22;2227;47.810;8.810;2023-12-14T13:18:45;8.20;99.90
4429;DHT22;2227;47.810;8.810;2023-12-14T13:21:12;8.30;99.90
4429;DHT22;2227;47.810;8.810;2023-12-14T13:23:39;8.30;99.90
4429;DHT22;2227;47.810;8.810;2023-12-14T13:26:08;8.40;99.90
4429;DHT22;2227;47.810;8.810;2023-12-14T13:28:35;8.30;99.90
4429;DHT22;2227;47.810;8.810;2023-12-14T13:31:02;8.40;99.90
4429;DHT22;2227;47.810;8.810;2023-12-14T13:33:29;8.50;99.90
4429;DHT22;2227;47.810;8.810;2023-12-14T13:35:56;8.60;99.90
4429;DHT22;2227;47.810;8.810;2023-12-14T13:38:23;8.50;99.90
4429;DHT22;2227;47.810;8.810;2023-12-14T13:40:50;8.60;99.90
4429;DHT22;2227;47.810;8.810;2023-12-14T13:43:16;8.80;99.90
4429;DHT22;2227;47.810;8.810;2023-12-14T13:45:43;8.90;99.90
4429;DHT22;2227;47.810;8.810;2023-12-14T13:48:10;8.90;99.90
4429;DHT22;2227;47.810;8.810;2023-12-14T13:50:37;9.00;99.90
4429;DHT22;2227;47.810;8.810;2023-12-14T13:53:04;9.20;99.90
4429;DHT22;2227;47.810;8.810;2023-12-14T13:55:31;9.30;99.90
4429;DHT22;2227;47.810;8.810;2023-12-14T13:57:58;9.20;99.90
4429;DHT22;2227;47.810;8.810;2023-12-14T14:00:27;9.20;99.90
4429;DHT22;2227;47.810;8.810;2023-12-14T14:02:53;9.40;99.90
4429;DHT22;2227;47.810;8.810;2023-12-14T14:05:21;9.70;99.90
4429;DHT22;2227;47.810;8.810;2023-12-14T14:07:48;9.80;99.90
4429;DHT22;2227;47.810;8.810;2023-12-14T14:10:15;9.70;99.90
4429;DHT22;2227;47.810;8.810;2023-12-14T14:12:42;9.50;99.90
4429;DHT22;2227;47.810;8.810;2023-12-14T14:15:09;9.20;99.90
4429;DHT22;2227;47.810;8.810;2023-12-14T14:17:36;8.60;99.90
4429;DHT22;2227;47.810;8.810;2023-12-14T14:20:03;8.20;99.90
4429;DHT22;2227;47.810;8.810;2023-12-14T14:22:31;8.00;99.90
4429;DHT22;2227;47.810;8.810;2023-12-14T14:24:59;8.00;99.90
4429;DHT22;2227;47.810;8.810;2023-12-14T14:27:26;7.90;99.90
4429;DHT22;2227;47.810;8.810;2023-12-14T14:29:52;8.20;99.90
4429;DHT22;2227;47.810;8.810;2023-12-14T14:32:23;8.30;99.90
4429;DHT22;2227;47.810;8.810;2023-12-14T14:34:50;8.40;99.90
4429;DHT22;2227;47.810;8.810;2023-12-14T14:37:17;8.40;99.90
4429;DHT22;2227;47.810;8.810;2023-12-14T14:39:44;8.30;99.90
4429;DHT22;2227;47.810;8.810;2023-12-14T14:42:10;8.40;99.90
4429;DHT22;2227;47.810;8.810;2023-12-14T14:44:37;8.40;99.90
4429;DHT22;2227;47.810;8.810;2023-12-14T14:47:04;8.50;99.90
4429;DHT22;2227;47.810;8.810;2023-12-14T14:49:31;8.50;99.90
4429;DHT22;2227;47.810;8.810;2023-12-14T14:51:57;8.60;99.90
4429;DHT22;2227;47.810;8.810;2023-12-14T14:54:24;8.50;99.90
4429;DHT22;2227;47.810;8.810;2023-12-14T14:56:52;8.30;99.90
4429;DHT22;2227;47.810;8.810;2023-12-14T14:59:18;8.10;99.90
4429;DHT22;2227;47.810;8.810;2023-12-14T15:01:46;8.10;99.90
4429;DHT22;2227;47.810;8.810;2023-12-14T15:04:13;8.10;99.90
4429;DHT22;2227;47.810;8.810;2023-12-14T15:06:40;8.10;99.90
4429;DHT22;2227;47.810;8.810;2023-12-14T15:09:07;8.00;99.90
4429;DHT22;2227;47.810;8.810;2023-12-14T15:11:35;8.00;99.90
4429;DHT22;2227;47.810;8.810;2023-12-14T15:14:02;7.90;99.90
4429;DHT22;2227;47.810;8.810;2023-12-14T15:16:29;7.90;99.90
4429;DHT22;2227;47.810;8.810;2023-12-14T15:18:56;7.90;99.90
4429;DHT22;2227;47.810;8.810;2023-12-14T15:21:22;7.80;99.90
4429;DHT22;2227;47.810;8.810;2023-12-14T15:23:49;7.70;99.90
4429;DHT22;2227;47.810;8.810;2023-12-14T15:26:16;7.60;99.90
4429;DHT22;2227;47.810;8.810;2023-12-14T15:28:43;7.60;99.90
4429;DHT22;2227;47.810;8.810;2023-12-14T15:31:10;7.70;99.90
4429;DHT22;2227;47.810;8.810;2023-12-14T15:33:38;7.80;99.90
4429;DHT22;2227;47.810;8.810;2023-12-14T15:36:05;7.90;99.90
4429;DHT22;2227;47.810;8.810;2023-12-14T15:38:32;7.80;99.90
4429;DHT22;2227;47.810;8.810;2023-12-14T15:40:58;7.70;99.90
4429;DHT22;2227;47.810;8.810;2023-12-14T15:43:25;7.60;99.90
4429;DHT22;2227;47.810;8.810;2023-12-14T15:45:52;7.60;99.90
4429;DHT22;2227;47.810;8.810;2023-12-14T15:48:19;7.50;99.90
4429;DHT22;2227;47.810;8.810;2023-12-14T15:50:47;7.50;99.90
4429;DHT22;2227;47.810;8.810;2023-12-14T15:53:13;7.50;99.90
4429;DHT22;2227;47.810;8.810;2023-12-14T15:55:40;7.40;99.90
4429;DHT22;2227;47.810;8.810;2023-12-14T15:58:07;7.40;99.90
4429;DHT22;2227;47.810;8.810;2023-12-14T16:00:36;7.30;99.90
4429;DHT22;2227;47.810;8.810;2023-12-14T16:03:02;7.40;99.90
4429;DHT22;2227;47.810;8.810;2023-12-14T16:05:29;7.50;99.90
4429;DHT22;2227;47.810;8.810;2023-12-14T16:07:56;7.50;99.90
4429;DHT22;2227;47.810;8.810;2023-12-14T16:10:23;7.60;99.90
4429;DHT22;2227;47.810;8.810;2023-12-14T16:12:51;7.70;99.90
4429;DHT22;2227;47.810;8.810;2023-12-14T16:15:17;7.80;99.90
4429;DHT22;2227;47.810;8.810;2023-12-14T16:17:45;7.90;99.90
4429;DHT22;2227;47.810;8.810;2023-12-14T16:20:11;8.00;99.90
4429;DHT22;2227;47.810;8.810;2023-12-14T16:22:38;7.90;99.90
4429;DHT22;2227;47.810;8.810;2023-12-14T16:25:05;8.00;99.90
4429;DHT22;2227;47.810;8.810;2023-12-14T16:27:32;8.00;99.90
4429;DHT22;2227;47.810;8.810;2023-12-14T16:29:59;8.00;99.90
4429;DHT22;2227;47.810;8.810;2023-12-14T16:32:26;8.00;99.90
4429;DHT22;2227;47.810;8.810;2023-12-14T16:34:53;8.00;99.90
4429;DHT22;2227;47.810;8.810;2023-12-14T16:37:20;8.00;99.90
4429;DHT22;2227;47.810;8.810;2023-12-14T16:39:47;8.00;99.90
4429;DHT22;2227;47.810;8.810;2023-12-14T16:42:14;8.00;99.90
4429;DHT22;2227;47.810;8.810;2023-12-14T16:44:41;8.00;99.90
4429;DHT22;2227;47.810;8.810;2023-12-14T16:47:08;8.00;99.90
4429;DHT22;2227;47.810;8.810;2023-12-14T16:49:36;8.00;99.90
4429;DHT22;2227;47.810;8.810;2023-12-14T16:52:04;8.10;99.90
4429;DHT22;2227;47.810;8.810;2023-12-14T16:54:31;8.00;99.90
4429;DHT22;2227;47.810;8.810;2023-12-14T16:56:58;7.90;99.90
4429;DHT22;2227;47.810;8.810;2023-12-14T16:59:25;8.00;99.90
4429;DHT22;2227;47.810;8.810;2023-12-14T17:01:52;8.00;99.90
4429;DHT22;2227;47.810;8.810;2023-12-14T17:04:19;8.00;99.90
4429;DHT22;2227;47.810;8.810;2023-12-14T17:06:46;7.90;99.90
4429;DHT22;2227;47.810;8.810;2023-12-14T17:09:13;7.90;99.90
4429;DHT22;2227;47.810;8.810;2023-12-14T17:11:40;7.80;99.90
4429;DHT22;2227;47.810;8.810;2023-12-14T17:14:09;7.70;99.90
4429;DHT22;2227;47.810;8.810;2023-12-14T17:16:36;7.60;99.90
4429;DHT22;2227;47.810;8.810;2023-12-14T17:19:03;7.40;99.90
4429;DHT22;2227;47.810;8.810;2023-12-14T17:21:31;7.40;99.90
4429;DHT22;2227;47.810;8.810;2023-12-14T17:23:58;7.40;99.90
4429;DHT22;2227;47.810;8.810;2023-12-14T17:26:24;7.40;99.90
4429;DHT22;2227;47.810;8.810;2023-12-14T17:28:55;7.50;99.90
4429;DHT22;2227;47.810;8.810;2023-12-14T17:31:24;7.50;99.90
4429;DHT22;2227;47.810;8.810;2023-12-14T17:33:51;7.50;99.90
4429;DHT22;2227;47.810;8.810;2023-12-14T17:36:18;7.60;99.90
4429;DHT22;2227;47.810;8.810;2023-12-14T17:38:45;7.60;99.90
4429;DHT22;2227;47.810;8.810;2023-12-14T17:41:12;7.40;99.90
4429;DHT22;2227;47.810;8.810;2023-12-14T17:43:42;7.50;99.90
4429;DHT22;2227;47.810;8.810;2023-12-14T17:46:14;7.50;99.90
4429;DHT22;2227;47.810;8.810;2023-12-14T17:48:41;7.30;99.90
4429;DHT22;2227;47.810;8.810;2023-12-14T17:51:08;7.20;99.90
4429;DHT22;2227;47.810;8.810;2023-12-14T17:53:35;7.30;99.90
4429;DHT22;2227;47.810;8.810;2023-12-14T17:56:03;7.30;99.90
4429;DHT22;2227;47.810;8.810;2023-12-14T17:58:30;7.20;99.90
4429;DHT22;2227;47.810;8.810;2023-12-14T18:00:56;7.40;99.90
4429;DHT22;2227;47.810;8.810;2023-12-14T18:03:23;7.30;99.90
4429;DHT22;2227;47.810;8.810;2023-12-14T18:05:50;7.40;99.90
4429;DHT22;2227;47.810;8.810;2023-12-14T18:08:17;7.40;99.90
4429;DHT22;2227;47.810;8.810;2023-12-14T18:10:44;7.50;99.90
4429;DHT22;2227;47.810;8.810;2023-12-14T18:13:10;7.30;99.90
4429;DHT22;2227;47.810;8.810;2023-12-14T18:15:37;7.30;99.90
4429;DHT22;2227;47.810;8.810;2023-12-14T18:18:04;7.30;99.90
4429;DHT22;2227;47.810;8.810;2023-12-14T18:20:31;7.50;99.90
4429;DHT22;2227;47.810;8.810;2023-12-14T18:22:59;7.30;99.90
4429;DHT22;2227;47.810;8.810;2023-12-14T18:25:26;7.40;99.90
4429;DHT22;2227;47.810;8.810;2023-12-14T18:27:52;7.30;99.90
4429;DHT22;2227;47.810;8.810;2023-12-14T18:30:21;7.40;99.90
4429;DHT22;2227;47.810;8.810;2023-12-14T18:32:49;7.40;99.90
4429;DHT22;2227;47.810;8.810;2023-12-14T18:35:18;7.20;99.90
4429;DHT22;2227;47.810;8.810;2023-12-14T18:37:45;7.10;99.90
4429;DHT22;2227;47.810;8.810;2023-12-14T18:40:13;7.00;99.90
4429;DHT22;2227;47.810;8.810;2023-12-14T18:42:42;7.00;99.90
4429;DHT22;2227;47.810;8.810;2023-12-14T18:45:09;7.20;99.90
4429;DHT22;2227;47.810;8.810;2023-12-14T18:47:36;7.30;99.90
4429;DHT22;2227;47.810;8.810;2023-12-14T18:50:03;7.40;99.90
4429;DHT22;2227;47.810;8.810;2023-12-14T18:52:32;7.50;99.90
4429;DHT22;2227;47.810;8.810;2023-12-14T18:54:59;7.30;99.90
4429;DHT22;2227;47.810;8.810;2023-12-14T18:57:25;7.30;99.90
4429;DHT22;2227;47.810;8.810;2023-12-14T18:59:52;7.10;99.90
4429;DHT22;2227;47.810;8.810;2023-12-14T19:02:19;7.10;99.90
4429;DHT22;2227;47.810;8.810;2023-12-14T19:04:52;7.10;99.90
4429;DHT22;2227;47.810;8.810;2023-12-14T19:07:19;7.20;99.90
4429;DHT22;2227;47.810;8.810;2023-12-14T19:09:47;7.20;99.90
4429;DHT22;2227;47.810;8.810;2023-12-14T19:12:13;7.20;99.90
4429;DHT22;2227;47.810;8.810;2023-12-14T19:14:40;7.20;99.90
4429;DHT22;2227;47.810;8.810;2023-12-14T19:17:07;7.20;99.90
4429;DHT22;2227;47.810;8.810;2023-12-14T19:19:34;7.20;99.90
4429;DHT22;2227;47.810;8.810;2023-12-14T19:22:00;7.20;99.90
4429;DHT22;2227;47.810;8.810;2023-12-14T19:24:27;7.10;99.90
4429;DHT22;2227;47.810;8.810;2023-12-14T19:26:54;6.80;99.90
4429;DHT22;2227;47.810;8.810;2023-12-14T19:29:21;6.80;99.90
4429;DHT22;2227;47.810;8.810;2023-12-14T19:31:48;6.80;99.90
4429;DHT22;2227;47.810;8.810;2023-12-14T19:34:15;6.80;99.90
4429;DHT22;2227;47.810;8.810;2023-12-14T19:36:41;6.80;99.90
4429;DHT22;2227;47.810;8.810;2023-12-14T19:39:08;6.70;99.90
4429;DHT22;2227;47.810;8.810;2023-12-14T19:41:37;6.80;99.90
4429;DHT22;2227;47.810;8.810;2023-12-14T19:44:05;6.80;99.90
4429;DHT22;2227;47.810;8.810;2023-12-14T19:46:32;6.80;99.90
4429;DHT22;2227;47.810;8.810;2023-12-14T19:49:00;6.70;99.90
4429;DHT22;2227;47.810;8.810;2023-12-14T19:51:27;6.80;99.90
4429;DHT22;2227;47.810;8.810;2023-12-14T19:53:54;6.70;99.90
4429;DHT22;2227;47.810;8.810;2023-12-14T19:56:20;6.60;99.90
4429;DHT22;2227;47.810;8.810;2023-12-14T19:58:47;6.60;99.90
4429;DHT22;2227;47.810;8.810;2023-12-14T20:01:14;6.60;99.90
4429;DHT22;2227;47.810;8.810;2023-12-14T20:03:43;6.80;99.90
4429;DHT22;2227;47.810;8.810;2023-12-14T20:06:21;6.80;99.90
4429;DHT22;2227;47.810;8.810;2023-12-14T20:08:49;6.90;99.90
4429;DHT22;2227;47.810;8.810;2023-12-14T20:11:17;6.90;99.90
4429;DHT22;2227;47.810;8.810;2023-12-14T20:13:44;7.00;99.90
4429;DHT22;2227;47.810;8.810;2023-12-14T20:16:11;7.10;99.90
4429;DHT22;2227;47.810;8.810;2023-12-14T20:18:38;7.00;99.90
4429;DHT22;2227;47.810;8.810;2023-12-14T20:21:06;6.90;99.90
4429;DHT22;2227;47.810;8.810;2023-12-14T20:23:33;6.80;99.90
4429;DHT22;2227;47.810;8.810;2023-12-14T20:26:00;6.90;99.90
4429;DHT22;2227;47.810;8.810;2023-12-14T20:28:27;6.80;99.90
4429;DHT22;2227;47.810;8.810;2023-12-14T20:30:54;6.60;99.90
4429;DHT22;2227;47.810;8.810;2023-12-14T20:33:20;6.60;99.90
4429;DHT22;2227;47.810;8.810;2023-12-14T20:35:48;6.70;99.90
4429;DHT22;2227;47.810;8.810;2023-12-14T20:38:14;6.80;99.90
4429;DHT22;2227;47.810;8.810;2023-12-14T20:40:41;7.00;99.90
4429;DHT22;2227;47.810;8.810;2023-12-14T20:43:08;7.20;99.90
4429;DHT22;2227;47.810;8.810;2023-12-14T20:45:35;7.30;99.90
4429;DHT22;2227;47.810;8.810;2023-12-14T20:48:02;7.40;99.90
4429;DHT22;2227;47.810;8.810;2023-12-14T20:50:29;7.50;99.90
4429;DHT22;2227;47.810;8.810;2023-12-14T20:53:00;7.50;99.90
4429;DHT22;2227;47.810;8.810;2023-12-14T20:55:26;7.40;99.90
4429;DHT22;2227;47.810;8.810;2023-12-14T20:57:53;7.50;99.90
4429;DHT22;2227;47.810;8.810;2023-12-14T21:00:20;7.50;99.90
4429;DHT22;2227;47.810;8.810;2023-12-14T21:02:46;7.50;99.90
4429;DHT22;2227;47.810;8.810;2023-12-14T21:05:13;7.40;99.90
4429;DHT22;2227;47.810;8.810;2023-12-14T21:07:40;7.00;99.90
4429;DHT22;2227;47.810;8.810;2023-12-14T21:10:07;6.70;99.90
4429;DHT22;2227;47.810;8.810;2023-12-14T21:12:34;6.50;99.90